createdAt,value
2019-01-19T00:00:21.695Z,0.00
2019-01-19T00:01:21.670Z,0.00
2019-01-19T00:02:21.622Z,0.00
2019-01-19T00:03:21.639Z,0.00
2019-01-19T00:04:21.601Z,0.00
2019-01-19T00:05:21.519Z,0.00
2019-01-19T00:06:21.486Z,0.00
2019-01-19T00:07:21.449Z,0.00
2019-01-19T00:08:21.417Z,0.00
2019-01-19T00:09:21.454Z,0.00
2019-01-19T00:10:21.345Z,0.00
2019-01-19T00:11:21.308Z,0.00
2019-01-19T00:12:21.279Z,0.00
2019-01-19T00:13:21.239Z,0.00
2019-01-19T00:14:21.254Z,0.00
2019-01-19T00:15:21.168Z,0.00
2019-01-19T00:16:21.133Z,0.00
2019-01-19T00:17:21.098Z,0.00
2019-01-19T00:18:21.100Z,0.00
2019-01-19T00:19:21.028Z,0.00
2019-01-19T00:20:21.065Z,0.00
2019-01-19T00:21:20.960Z,0.00
2019-01-19T00:22:20.919Z,0.00
2019-01-19T00:23:20.885Z,0.00
2019-01-19T00:24:20.849Z,0.00
2019-01-19T00:25:20.865Z,0.00
2019-01-19T00:26:20.776Z,0.00
2019-01-19T00:27:20.746Z,0.00
2019-01-19T00:28:20.708Z,0.00
2019-01-19T00:29:20.672Z,0.00
2019-01-19T00:30:20.714Z,0.00
2019-01-19T00:31:20.604Z,0.00
2019-01-19T00:32:20.578Z,0.00
2019-01-19T00:33:20.532Z,0.00
2019-01-19T00:34:20.504Z,0.00
2019-01-19T00:35:20.506Z,0.00
2019-01-19T00:36:20.431Z,0.00
2019-01-19T00:37:20.392Z,0.00
2019-01-19T00:38:20.405Z,0.00
2019-01-19T00:39:21.073Z,0.00
2019-01-19T00:40:20.299Z,0.00
2019-01-19T00:41:20.325Z,0.00
2019-01-19T00:42:20.218Z,0.00
2019-01-19T00:43:20.190Z,0.00
2019-01-19T00:44:20.146Z,0.00
2019-01-19T00:45:20.121Z,0.00
2019-01-19T00:46:20.132Z,0.00
2019-01-19T00:47:20.049Z,0.00
2019-01-19T00:48:20.027Z,0.00
2019-01-19T00:49:19.973Z,0.00
2019-01-19T00:50:19.937Z,0.00
2019-01-19T00:51:19.945Z,0.00
2019-01-19T00:52:19.915Z,0.00
2019-01-19T00:53:19.831Z,0.00
2019-01-19T00:54:19.796Z,0.00
2019-01-19T00:55:19.761Z,0.00
2019-01-19T00:56:19.729Z,0.00
2019-01-19T00:57:19.738Z,0.00
2019-01-19T00:58:19.724Z,0.00
2019-01-19T00:59:19.629Z,0.00
2019-01-19T01:00:19.636Z,0.00
2019-01-19T01:01:19.563Z,0.00
2019-01-19T01:02:19.567Z,0.00
2019-01-19T01:03:19.497Z,0.00
2019-01-19T01:04:19.454Z,0.00
2019-01-19T01:05:25.157Z,0.00
2019-01-19T01:06:19.426Z,0.00
2019-01-19T01:07:19.407Z,0.00
2019-01-19T01:08:19.310Z,0.00
2019-01-19T01:09:19.277Z,0.00
2019-01-19T01:10:19.253Z,0.00
2019-01-19T01:11:19.205Z,0.00
2019-01-19T01:12:19.213Z,0.00
2019-01-19T01:13:19.141Z,0.00
2019-01-19T01:14:19.107Z,0.00
2019-01-19T01:15:19.106Z,0.00
2019-01-19T01:16:19.032Z,0.00
2019-01-19T01:17:18.996Z,0.00
2019-01-19T01:18:18.965Z,0.00
2019-01-19T01:19:18.939Z,0.00
2019-01-19T01:20:18.895Z,0.00
2019-01-19T01:21:18.897Z,0.00
2019-01-19T01:22:18.822Z,0.00
2019-01-19T01:23:18.833Z,0.00
2019-01-19T01:24:18.759Z,0.00
2019-01-19T01:25:18.764Z,0.00
2019-01-19T01:26:18.687Z,0.00
2019-01-19T01:27:18.655Z,0.00
2019-01-19T01:28:18.616Z,0.00
2019-01-19T01:29:18.628Z,0.00
2019-01-19T01:30:18.591Z,0.00
2019-01-19T01:31:18.510Z,0.00
2019-01-19T01:32:18.471Z,0.00
2019-01-19T01:33:18.439Z,0.00
2019-01-19T01:34:18.455Z,0.00
2019-01-19T01:35:18.369Z,0.00
2019-01-19T01:36:18.392Z,0.00
2019-01-19T01:37:18.347Z,0.00
2019-01-19T01:38:18.267Z,0.00
2019-01-19T01:39:18.234Z,0.00
2019-01-19T01:40:18.196Z,0.00
2019-01-19T01:41:18.210Z,0.00
2019-01-19T01:42:18.123Z,0.00
2019-01-19T01:43:18.135Z,0.00
2019-01-19T01:44:18.051Z,0.00
2019-01-19T01:45:18.022Z,0.00
2019-01-19T01:46:18.064Z,0.00
2019-01-19T01:47:17.955Z,0.00
2019-01-19T01:48:17.961Z,0.00
2019-01-19T01:49:17.882Z,0.00
2019-01-19T01:50:17.853Z,0.00
2019-01-19T01:51:17.813Z,0.00
2019-01-19T01:52:17.803Z,0.00
2019-01-19T01:53:17.813Z,0.00
2019-01-19T01:54:17.704Z,0.00
2019-01-19T01:55:17.667Z,0.00
2019-01-19T01:56:17.634Z,0.00
2019-01-19T01:57:17.650Z,0.00
2019-01-19T01:58:17.562Z,0.00
2019-01-19T01:59:17.568Z,0.00
2019-01-19T02:00:17.502Z,0.00
2019-01-19T02:01:17.461Z,0.00
2019-01-19T02:02:17.471Z,0.00
2019-01-19T02:03:17.385Z,0.00
2019-01-19T02:04:17.351Z,0.00
2019-01-19T02:05:17.314Z,0.00
2019-01-19T02:06:17.326Z,0.00
2019-01-19T02:07:17.247Z,0.00
2019-01-19T02:08:17.212Z,0.00
2019-01-19T02:09:17.182Z,0.00
2019-01-19T02:10:17.188Z,0.00
2019-01-19T02:11:17.114Z,0.00
2019-01-19T02:12:17.079Z,0.00
2019-01-19T02:13:17.035Z,0.00
2019-01-19T02:14:17.055Z,0.00
2019-01-19T02:15:16.971Z,0.00
2019-01-19T02:16:16.992Z,0.00
2019-01-19T02:17:16.893Z,0.00
2019-01-19T02:18:16.860Z,0.00
2019-01-19T02:19:16.828Z,0.00
2019-01-19T02:20:16.823Z,0.00
2019-01-19T02:21:16.842Z,0.00
2019-01-19T02:22:16.792Z,0.00
2019-01-19T02:23:16.689Z,0.00
2019-01-19T02:24:16.650Z,0.00
2019-01-19T02:25:16.625Z,0.00
2019-01-19T02:26:16.584Z,0.00
2019-01-19T02:27:16.590Z,0.00
2019-01-19T02:28:16.509Z,0.00
2019-01-19T02:29:16.474Z,0.00
2019-01-19T02:30:16.441Z,0.00
2019-01-19T02:31:16.417Z,0.00
2019-01-19T02:32:16.425Z,0.00
2019-01-19T02:33:16.361Z,0.00
2019-01-19T02:34:16.308Z,0.00
2019-01-19T02:35:16.266Z,0.00
2019-01-19T02:36:16.226Z,0.00
2019-01-19T02:37:16.237Z,0.00
2019-01-19T02:38:16.208Z,0.00
2019-01-19T02:39:16.125Z,0.00
2019-01-19T02:40:16.086Z,0.00
2019-01-19T02:41:16.577Z,0.00
2019-01-19T02:42:16.063Z,0.00
2019-01-19T02:43:15.990Z,0.00
2019-01-19T02:44:18.979Z,0.00
2019-01-19T02:45:15.916Z,0.00
2019-01-19T02:46:15.881Z,0.00
2019-01-19T02:47:15.891Z,0.00
2019-01-19T02:48:15.849Z,0.00
2019-01-19T02:49:15.780Z,0.00
2019-01-19T02:50:15.740Z,0.00
2019-01-19T02:51:15.704Z,0.00
2019-01-19T02:52:15.715Z,0.00
2019-01-19T02:53:15.630Z,0.00
2019-01-19T02:54:15.657Z,0.00
2019-01-19T02:55:15.565Z,0.00
2019-01-19T02:56:15.527Z,0.00
2019-01-19T02:57:15.497Z,0.00
2019-01-19T02:58:15.457Z,0.00
2019-01-19T02:59:15.463Z,0.00
2019-01-19T03:00:15.390Z,0.00
2019-01-19T03:01:15.392Z,0.00
2019-01-19T03:02:15.318Z,0.00
2019-01-19T03:03:15.327Z,0.00
2019-01-19T03:04:15.299Z,0.00
2019-01-19T03:05:15.306Z,0.00
2019-01-19T03:06:15.177Z,0.00
2019-01-19T03:07:15.162Z,0.00
2019-01-19T03:08:15.156Z,0.00
2019-01-19T03:09:15.085Z,0.00
2019-01-19T03:10:15.086Z,0.00
2019-01-19T03:11:15.003Z,0.00
2019-01-19T03:12:14.985Z,0.00
2019-01-19T03:13:14.933Z,0.00
2019-01-19T03:14:14.897Z,0.00
2019-01-19T03:15:14.904Z,0.00
2019-01-19T03:16:14.896Z,0.00
2019-01-19T03:17:14.794Z,0.00
2019-01-19T03:18:14.757Z,0.00
2019-01-19T03:19:14.736Z,0.00
2019-01-19T03:20:14.727Z,0.00
2019-01-19T03:21:14.654Z,0.00
2019-01-19T03:22:14.618Z,0.00
2019-01-19T03:23:14.578Z,0.00
2019-01-19T03:24:14.547Z,0.00
2019-01-19T03:25:14.563Z,0.00
2019-01-19T03:26:14.472Z,0.00
2019-01-19T03:27:14.498Z,0.00
2019-01-19T03:28:14.499Z,0.00
2019-01-19T03:29:14.366Z,0.00
2019-01-19T03:30:14.338Z,0.00
2019-01-19T03:31:14.299Z,0.00
2019-01-19T03:32:14.328Z,0.00
2019-01-19T03:33:14.233Z,0.00
2019-01-19T03:34:14.194Z,0.00
2019-01-19T03:35:14.156Z,0.00
2019-01-19T03:36:14.127Z,0.00
2019-01-19T03:37:14.149Z,0.00
2019-01-19T03:38:14.059Z,0.00
2019-01-19T03:39:14.019Z,0.00
2019-01-19T03:40:13.997Z,0.00
2019-01-19T03:41:14.488Z,0.00
2019-01-19T03:42:13.957Z,0.00
2019-01-19T03:43:13.918Z,0.00
2019-01-19T03:44:13.845Z,0.00
2019-01-19T03:45:13.805Z,0.00
2019-01-19T03:46:13.778Z,0.00
2019-01-19T03:47:13.738Z,0.00
2019-01-19T03:48:13.748Z,0.00
2019-01-19T03:49:13.661Z,0.00
2019-01-19T03:50:13.629Z,0.00
2019-01-19T03:51:13.618Z,0.00
2019-01-19T03:52:13.603Z,0.00
2019-01-19T03:53:13.563Z,0.00
2019-01-19T03:54:13.488Z,0.00
2019-01-19T03:55:13.457Z,0.00
2019-01-19T03:56:13.421Z,0.00
2019-01-19T03:57:13.383Z,0.00
2019-01-19T03:58:13.389Z,0.00
2019-01-19T03:59:13.336Z,0.00
2019-01-19T04:00:13.282Z,0.00
2019-01-19T04:01:13.241Z,0.00
2019-01-19T04:02:13.251Z,0.00
2019-01-19T04:03:13.173Z,0.00
2019-01-19T04:04:13.182Z,0.00
2019-01-19T04:05:13.147Z,0.00
2019-01-19T04:06:13.092Z,0.00
2019-01-19T04:07:13.034Z,0.00
2019-01-19T04:08:12.993Z,0.00
2019-01-19T04:09:12.959Z,0.00
2019-01-19T04:10:12.994Z,0.00
2019-01-19T04:11:12.891Z,0.00
2019-01-19T04:12:12.857Z,0.00
2019-01-19T04:13:12.818Z,0.00
2019-01-19T04:14:12.784Z,0.00
2019-01-19T04:15:12.818Z,0.00
2019-01-19T04:16:12.804Z,0.00
2019-01-19T04:17:12.682Z,0.00
2019-01-19T04:18:12.645Z,0.00
2019-01-19T04:19:12.610Z,0.00
2019-01-19T04:20:12.656Z,0.00
2019-01-19T04:21:12.539Z,0.00
2019-01-19T04:22:12.508Z,0.00
2019-01-19T04:23:12.477Z,0.00
2019-01-19T04:24:12.432Z,0.00
2019-01-19T04:25:12.435Z,0.00
2019-01-19T04:26:12.408Z,0.00
2019-01-19T04:27:12.335Z,0.00
2019-01-19T04:28:14.489Z,0.00
2019-01-19T04:29:12.267Z,0.00
2019-01-19T04:30:12.269Z,0.00
2019-01-19T04:31:12.232Z,0.00
2019-01-19T04:32:12.151Z,0.00
2019-01-19T04:33:12.118Z,0.00
2019-01-19T04:34:12.083Z,0.00
2019-01-19T04:35:12.046Z,0.00
2019-01-19T04:36:12.054Z,0.00
2019-01-19T04:37:11.979Z,0.00
2019-01-19T04:38:11.936Z,0.00
2019-01-19T04:39:11.914Z,0.00
2019-01-19T04:40:11.866Z,0.00
2019-01-19T04:41:11.882Z,0.00
2019-01-19T04:42:11.793Z,0.00
2019-01-19T04:43:11.763Z,0.00
2019-01-19T04:44:11.719Z,0.00
2019-01-19T04:45:12.596Z,0.00
2019-01-19T04:46:11.690Z,0.00
2019-01-19T04:47:11.612Z,0.00
2019-01-19T04:48:11.581Z,0.00
2019-01-19T04:49:11.639Z,0.00
2019-01-19T04:50:11.504Z,0.00
2019-01-19T04:51:11.469Z,0.00
2019-01-19T04:52:11.432Z,0.00
2019-01-19T04:53:11.394Z,0.00
2019-01-19T04:54:11.401Z,0.00
2019-01-19T04:55:12.082Z,0.00
2019-01-19T04:56:11.282Z,0.00
2019-01-19T04:57:11.265Z,0.00
2019-01-19T04:58:11.989Z,0.00
2019-01-19T04:59:11.668Z,0.00
2019-01-19T05:00:12.084Z,0.00
2019-01-19T05:01:11.099Z,0.00
2019-01-19T05:02:11.067Z,0.00
2019-01-19T05:03:11.028Z,0.00
2019-01-19T05:04:11.034Z,0.00
2019-01-19T05:05:11.582Z,0.00
2019-01-19T05:06:12.370Z,0.00
2019-01-19T05:07:10.879Z,0.00
2019-01-19T05:08:10.843Z,0.00
2019-01-19T05:09:11.137Z,0.00
2019-01-19T05:10:10.818Z,0.00
2019-01-19T05:11:10.778Z,0.00
2019-01-19T05:12:10.707Z,0.00
2019-01-19T05:13:10.653Z,0.00
2019-01-19T05:14:11.582Z,0.00
2019-01-19T05:15:10.581Z,0.00
2019-01-19T05:16:10.585Z,0.00
2019-01-19T05:17:10.503Z,0.00
2019-01-19T05:18:10.478Z,0.00
2019-01-19T05:19:11.086Z,0.00
2019-01-19T05:20:10.396Z,0.00
2019-01-19T05:21:10.406Z,0.00
2019-01-19T05:22:10.318Z,0.00
2019-01-19T05:23:10.857Z,0.00
2019-01-19T05:24:11.081Z,0.00
2019-01-19T05:25:10.211Z,0.00
2019-01-19T05:26:10.216Z,0.00
2019-01-19T05:27:10.134Z,0.00
2019-01-19T05:28:10.096Z,0.00
2019-01-19T05:29:10.058Z,0.00
2019-01-19T05:30:10.025Z,0.00
2019-01-19T05:31:10.031Z,0.00
2019-01-19T05:32:10.646Z,0.00
2019-01-19T05:33:09.957Z,0.00
2019-01-19T05:34:09.868Z,0.00
2019-01-19T05:35:09.831Z,0.00
2019-01-19T05:36:10.581Z,0.00
2019-01-19T05:37:09.758Z,0.00
2019-01-19T05:38:09.766Z,0.00
2019-01-19T05:39:10.585Z,0.00
2019-01-19T05:40:09.687Z,0.00
2019-01-19T05:41:09.608Z,0.00
2019-01-19T05:42:09.568Z,0.00
2019-01-19T05:43:09.532Z,0.00
2019-01-19T05:44:09.536Z,0.00
2019-01-19T05:45:09.458Z,0.00
2019-01-19T05:46:09.417Z,0.00
2019-01-19T05:47:09.387Z,0.00
2019-01-19T05:48:09.424Z,0.00
2019-01-19T05:49:09.343Z,0.00
2019-01-19T05:50:09.316Z,0.00
2019-01-19T05:51:09.238Z,0.00
2019-01-19T05:52:09.199Z,0.00
2019-01-19T05:53:09.158Z,0.00
2019-01-19T05:54:09.162Z,0.00
2019-01-19T05:55:09.098Z,0.00
2019-01-19T05:56:09.041Z,0.00
2019-01-19T05:57:09.034Z,0.00
2019-01-19T05:58:09.012Z,0.00
2019-01-19T05:59:08.977Z,0.00
2019-01-19T06:00:08.943Z,0.00
2019-01-19T06:01:08.852Z,0.00
2019-01-19T06:02:08.814Z,0.00
2019-01-19T06:03:08.786Z,0.00
2019-01-19T06:04:08.738Z,0.00
2019-01-19T06:05:15.829Z,0.00
2019-01-19T06:06:08.707Z,0.00
2019-01-19T06:07:09.602Z,0.00
2019-01-19T06:08:08.626Z,0.00
2019-01-19T06:09:08.563Z,0.00
2019-01-19T06:10:08.509Z,0.00
2019-01-19T06:11:08.511Z,0.00
2019-01-19T06:12:08.435Z,0.00
2019-01-19T06:13:08.399Z,0.00
2019-01-19T06:14:08.400Z,0.00
2019-01-19T06:15:08.325Z,0.00
2019-01-19T06:16:08.321Z,0.00
2019-01-19T06:17:08.257Z,0.00
2019-01-19T06:18:08.209Z,0.00
2019-01-19T06:19:08.170Z,0.00
2019-01-19T06:20:08.132Z,0.00
2019-01-19T06:21:08.150Z,0.00
2019-01-19T06:22:08.055Z,0.00
2019-01-19T06:23:08.017Z,0.00
2019-01-19T06:24:07.977Z,0.00
2019-01-19T06:25:07.944Z,0.00
2019-01-19T06:26:07.972Z,0.00
2019-01-19T06:27:07.866Z,0.00
2019-01-19T06:28:07.830Z,0.00
2019-01-19T06:29:07.789Z,4.00
2019-01-19T06:30:07.756Z,4.00
2019-01-19T06:31:07.766Z,0.00
2019-01-19T06:32:07.678Z,4.00
2019-01-19T06:33:07.636Z,4.00
2019-01-19T06:34:07.605Z,0.00
2019-01-19T06:35:07.563Z,4.00
2019-01-19T06:36:07.652Z,4.00
2019-01-19T06:37:07.494Z,8.00
2019-01-19T06:38:07.649Z,8.00
2019-01-19T06:39:07.439Z,8.00
2019-01-19T06:40:07.406Z,8.00
2019-01-19T06:41:07.333Z,12.00
2019-01-19T06:42:07.364Z,12.00
2019-01-19T06:43:08.091Z,12.00
2019-01-19T06:44:07.223Z,16.00
2019-01-19T06:45:07.185Z,20.00
2019-01-19T06:46:07.150Z,20.00
2019-01-19T06:47:07.154Z,28.00
2019-01-19T06:48:07.069Z,28.00
2019-01-19T06:49:07.033Z,36.00
2019-01-19T06:50:06.993Z,40.00
2019-01-19T06:51:07.001Z,44.00
2019-01-19T06:52:07.193Z,52.00
2019-01-19T06:53:06.883Z,60.00
2019-01-19T06:54:07.597Z,68.00
2019-01-19T06:55:06.801Z,80.00
2019-01-19T06:56:06.813Z,88.00
2019-01-19T06:57:06.726Z,104.00
2019-01-19T06:58:06.691Z,112.00
2019-01-19T06:59:06.726Z,128.00
2019-01-19T07:00:06.616Z,140.00
2019-01-19T07:01:06.578Z,156.00
2019-01-19T07:02:06.534Z,168.00
2019-01-19T07:03:07.113Z,180.00
2019-01-19T07:04:06.502Z,196.00
2019-01-19T07:05:06.455Z,212.00
2019-01-19T07:06:06.428Z,228.00
2019-01-19T07:07:06.346Z,244.00
2019-01-19T07:08:06.304Z,264.00
2019-01-19T07:09:06.267Z,280.00
2019-01-19T07:10:06.269Z,300.00
2019-01-19T07:11:06.193Z,320.00
2019-01-19T07:12:06.200Z,340.00
2019-01-19T07:13:06.115Z,360.00
2019-01-19T07:14:06.078Z,380.00
2019-01-19T07:15:06.088Z,404.00
2019-01-19T07:16:06.027Z,424.00
2019-01-19T07:17:05.970Z,448.00
2019-01-19T07:18:05.928Z,468.00
2019-01-19T07:19:05.887Z,500.00
2019-01-19T07:20:06.156Z,524.00
2019-01-19T07:21:05.812Z,548.00
2019-01-19T07:22:05.818Z,580.00
2019-01-19T07:23:05.737Z,608.00
2019-01-19T07:24:05.697Z,636.00
2019-01-19T07:25:05.659Z,668.00
2019-01-19T07:26:05.664Z,692.00
2019-01-19T07:27:05.646Z,724.00
2019-01-19T07:28:06.095Z,756.00
2019-01-19T07:29:05.505Z,776.00
2019-01-19T07:30:05.467Z,808.00
2019-01-19T07:31:05.436Z,836.00
2019-01-19T07:32:05.436Z,860.00
2019-01-19T07:33:06.093Z,888.00
2019-01-19T07:34:05.315Z,908.00
2019-01-19T07:35:05.284Z,936.00
2019-01-19T07:36:05.271Z,968.00
2019-01-19T07:37:09.739Z,1004.00
2019-01-19T07:38:06.099Z,1032.00
2019-01-19T07:39:05.172Z,1068.00
2019-01-19T07:40:05.125Z,1100.00
2019-01-19T07:41:05.048Z,1140.00
2019-01-19T07:42:05.016Z,1176.00
2019-01-19T07:43:05.597Z,1204.00
2019-01-19T07:44:04.995Z,1236.00
2019-01-19T07:45:04.902Z,1272.00
2019-01-19T07:46:04.866Z,1308.00
2019-01-19T07:47:04.820Z,1348.00
2019-01-19T07:48:04.782Z,1392.00
2019-01-19T07:49:05.175Z,1436.00
2019-01-19T07:50:04.708Z,1468.00
2019-01-19T07:51:04.671Z,1500.00
2019-01-19T07:52:04.641Z,1540.00
2019-01-19T07:53:04.594Z,1588.00
2019-01-19T07:54:04.595Z,1640.00
2019-01-19T07:55:04.517Z,1692.00
2019-01-19T07:56:04.479Z,1736.00
2019-01-19T07:57:04.445Z,1792.00
2019-01-19T07:58:04.415Z,1840.00
2019-01-19T07:59:04.675Z,1884.00
2019-01-19T08:00:04.375Z,1932.00
2019-01-19T08:01:04.348Z,1976.00
2019-01-19T08:02:04.261Z,2016.00
2019-01-19T08:03:04.212Z,2064.00
2019-01-19T08:04:05.094Z,2104.00
2019-01-19T08:05:04.136Z,2164.00
2019-01-19T08:06:04.147Z,2216.00
2019-01-19T08:07:04.061Z,2268.00
2019-01-19T08:08:04.063Z,2312.00
2019-01-19T08:09:03.989Z,2336.00
2019-01-19T08:10:03.952Z,2360.00
2019-01-19T08:11:03.961Z,2384.00
2019-01-19T08:12:03.871Z,2416.00
2019-01-19T08:13:03.880Z,2448.00
2019-01-19T08:14:03.800Z,2488.00
2019-01-19T08:15:04.601Z,2520.00
2019-01-19T08:16:04.155Z,2560.00
2019-01-19T08:17:03.753Z,2596.00
2019-01-19T08:18:03.648Z,2632.00
2019-01-19T08:19:03.612Z,2664.00
2019-01-19T08:20:03.569Z,2692.00
2019-01-19T08:21:03.566Z,2728.00
2019-01-19T08:22:03.677Z,2760.00
2019-01-19T08:23:03.461Z,2788.00
2019-01-19T08:24:03.456Z,2816.00
2019-01-19T08:25:03.381Z,2836.00
2019-01-19T08:26:03.349Z,2860.00
2019-01-19T08:27:03.353Z,2896.00
2019-01-19T08:28:03.315Z,2932.00
2019-01-19T08:29:04.353Z,2964.00
2019-01-19T08:30:03.195Z,3004.00
2019-01-19T08:31:03.157Z,3004.00
2019-01-19T08:32:03.119Z,3032.00
2019-01-19T08:33:03.122Z,3052.00
2019-01-19T08:34:03.090Z,3084.00
2019-01-19T08:35:03.008Z,3100.00
2019-01-19T08:36:03.006Z,3128.00
2019-01-19T08:37:02.930Z,3160.00
2019-01-19T08:38:02.891Z,3196.00
2019-01-19T08:39:02.876Z,3240.00
2019-01-19T08:40:02.817Z,3272.00
2019-01-19T08:41:02.860Z,3300.00
2019-01-19T08:42:02.743Z,3324.00
2019-01-19T08:43:02.706Z,3344.00
2019-01-19T08:44:02.666Z,3360.00
2019-01-19T08:45:02.637Z,3372.00
2019-01-19T08:46:02.649Z,3380.00
2019-01-19T08:47:02.557Z,3376.00
2019-01-19T08:48:02.520Z,3312.00
2019-01-19T08:49:02.483Z,3280.00
2019-01-19T08:50:02.488Z,3356.00
2019-01-19T08:51:02.404Z,3436.00
2019-01-19T08:52:02.370Z,3452.00
2019-01-19T08:53:03.098Z,3452.00
2019-01-19T08:54:02.337Z,3444.00
2019-01-19T08:55:02.259Z,3420.00
2019-01-19T08:56:02.234Z,3432.00
2019-01-19T08:57:03.109Z,3452.00
2019-01-19T08:58:02.231Z,3460.00
2019-01-19T08:59:02.110Z,3488.00
2019-01-19T09:00:02.087Z,3532.00
2019-01-19T09:01:02.033Z,3572.00
2019-01-19T09:02:02.063Z,3584.00
2019-01-19T09:03:01.963Z,3600.00
2019-01-19T09:04:01.929Z,3612.00
2019-01-19T09:05:01.893Z,3628.00
2019-01-19T09:06:01.851Z,3644.00
2019-01-19T09:07:01.852Z,3668.00
2019-01-19T09:08:01.781Z,3684.00
2019-01-19T09:09:01.741Z,3712.00
2019-01-19T09:10:01.737Z,3728.00
2019-01-19T09:11:01.665Z,3752.00
2019-01-19T09:12:01.674Z,3792.00
2019-01-19T09:13:01.638Z,3796.00
2019-01-19T09:14:02.505Z,3796.00
2019-01-19T09:15:01.513Z,3800.00
2019-01-19T09:16:01.524Z,3804.00
2019-01-19T09:17:01.445Z,3800.00
2019-01-19T09:18:01.419Z,3804.00
2019-01-19T09:19:01.373Z,3800.00
2019-01-19T09:20:01.370Z,3804.00
2019-01-19T09:21:01.299Z,3804.00
2019-01-19T09:22:01.259Z,3800.00
2019-01-19T09:23:01.273Z,3812.00
2019-01-19T09:24:01.192Z,3820.00
2019-01-19T09:25:01.149Z,3832.00
2019-01-19T09:26:01.111Z,3840.00
2019-01-19T09:27:01.074Z,3848.00
2019-01-19T09:28:01.085Z,3868.00
2019-01-19T09:29:00.998Z,3884.00
2019-01-19T09:30:01.008Z,3904.00
2019-01-19T09:31:00.931Z,3928.00
2019-01-19T09:32:01.030Z,3924.00
2019-01-19T09:33:00.851Z,3936.00
2019-01-19T09:34:00.820Z,3948.00
2019-01-19T09:35:00.787Z,3956.00
2019-01-19T09:36:00.760Z,3968.00
2019-01-19T09:37:00.791Z,3976.00
2019-01-19T09:38:00.668Z,3984.00
2019-01-19T09:39:00.680Z,3976.00
2019-01-19T09:40:00.602Z,3972.00
2019-01-19T09:41:00.572Z,3984.00
2019-01-19T09:42:00.529Z,4000.00
2019-01-19T09:43:00.669Z,4024.00
2019-01-19T09:44:00.464Z,4036.00
2019-01-19T09:45:00.485Z,4056.00
2019-01-19T09:46:00.390Z,4076.00
2019-01-19T09:47:00.345Z,4084.00
2019-01-19T09:48:00.319Z,4104.00
2019-01-19T09:49:00.274Z,4108.00
2019-01-19T09:50:00.302Z,4132.00
2019-01-19T09:51:00.200Z,4148.00
2019-01-19T09:52:00.164Z,4164.00
2019-01-19T09:53:01.015Z,4176.00
2019-01-19T09:54:00.105Z,4192.00
2019-01-19T09:55:00.210Z,4212.00
2019-01-19T09:56:00.030Z,4232.00
2019-01-19T09:56:59.982Z,4248.00
2019-01-19T09:57:59.957Z,4252.00
2019-01-19T09:58:59.912Z,4256.00
2019-01-19T09:59:59.956Z,4264.00
2019-01-19T10:00:59.843Z,4284.00
2019-01-19T10:01:59.847Z,4288.00
2019-01-19T10:02:59.771Z,4296.00
2019-01-19T10:03:59.738Z,4292.00
2019-01-19T10:04:59.769Z,4304.00
2019-01-19T10:05:59.663Z,4308.00
2019-01-19T10:06:59.623Z,4328.00
2019-01-19T10:07:59.589Z,4340.00
2019-01-19T10:08:59.558Z,4344.00
2019-01-19T10:09:59.563Z,4344.00
2019-01-19T10:10:59.482Z,4372.00
2019-01-19T10:12:00.010Z,4380.00
2019-01-19T10:12:59.457Z,4384.00
2019-01-19T10:13:59.384Z,4400.00
2019-01-19T10:14:59.340Z,4412.00
2019-01-19T10:15:59.323Z,4392.00
2019-01-19T10:16:59.308Z,4360.00
2019-01-19T10:17:59.272Z,4328.00
2019-01-19T10:18:59.191Z,4288.00
2019-01-19T10:19:59.153Z,4268.00
2019-01-19T10:20:59.128Z,4260.00
2019-01-19T10:21:59.084Z,4252.00
2019-01-19T10:22:59.097Z,4248.00
2019-01-19T10:23:59.063Z,4252.00
2019-01-19T10:24:59.052Z,4264.00
2019-01-19T10:25:58.941Z,4280.00
2019-01-19T10:26:58.904Z,4300.00
2019-01-19T10:27:58.892Z,4320.00
2019-01-19T10:28:58.832Z,4336.00
2019-01-19T10:29:58.838Z,4372.00
2019-01-19T10:30:58.764Z,4388.00
2019-01-19T10:31:58.775Z,4400.00
2019-01-19T10:32:58.690Z,4388.00
2019-01-19T10:33:58.660Z,4376.00
2019-01-19T10:34:58.700Z,4376.00
2019-01-19T10:35:58.585Z,4404.00
2019-01-19T10:36:58.556Z,4420.00
2019-01-19T10:37:58.555Z,4436.00
2019-01-19T10:38:58.564Z,4452.00
2019-01-19T10:39:58.465Z,4472.00
2019-01-19T10:40:58.451Z,4484.00
2019-01-19T10:41:58.404Z,4492.00
2019-01-19T10:42:58.340Z,4484.00
2019-01-19T10:43:58.661Z,4476.00
2019-01-19T10:44:58.326Z,4472.00
2019-01-19T10:45:58.231Z,4480.00
2019-01-19T10:46:58.194Z,4484.00
2019-01-19T10:47:58.156Z,4492.00
2019-01-19T10:48:58.122Z,4508.00
2019-01-19T10:49:58.134Z,4524.00
2019-01-19T10:50:58.060Z,4544.00
2019-01-19T10:51:59.447Z,4576.00
2019-01-19T10:52:57.983Z,4588.00
2019-01-19T10:53:57.954Z,4592.00
2019-01-19T10:54:57.960Z,4612.00
2019-01-19T10:55:57.881Z,4620.00
2019-01-19T10:56:57.893Z,4644.00
2019-01-19T10:57:57.808Z,4668.00
2019-01-19T10:58:57.814Z,4716.00
2019-01-19T10:59:57.811Z,4768.00
2019-01-19T11:00:57.703Z,4804.00
2019-01-19T11:01:57.729Z,4848.00
2019-01-19T11:02:57.639Z,4948.00
2019-01-19T11:03:57.608Z,4992.00
2019-01-19T11:04:57.583Z,5020.00
2019-01-19T11:05:57.527Z,5068.00
2019-01-19T11:06:57.537Z,5084.00
2019-01-19T11:08:03.544Z,5104.00
2019-01-19T11:08:57.424Z,5124.00
2019-01-19T11:09:57.387Z,5132.00
2019-01-19T11:10:57.394Z,5140.00
2019-01-19T11:11:57.323Z,5136.00
2019-01-19T11:12:57.325Z,5132.00
2019-01-19T11:13:57.287Z,5132.00
2019-01-19T11:14:57.211Z,5112.00
2019-01-19T11:15:57.176Z,5096.00
2019-01-19T11:16:57.181Z,5084.00
2019-01-19T11:17:57.102Z,5092.00
2019-01-19T11:18:57.186Z,5084.00
2019-01-19T11:19:57.033Z,5088.00
2019-01-19T11:20:57.045Z,5092.00
2019-01-19T11:21:56.965Z,5096.00
2019-01-19T11:22:56.940Z,5096.00
2019-01-19T11:23:56.896Z,5088.00
2019-01-19T11:24:56.915Z,5084.00
2019-01-19T11:25:56.828Z,5072.00
2019-01-19T11:26:56.806Z,5064.00
2019-01-19T11:27:57.612Z,5048.00
2019-01-19T11:28:56.753Z,5028.00
2019-01-19T11:29:56.799Z,5036.00
2019-01-19T11:30:56.691Z,5036.00
2019-01-19T11:31:56.643Z,5024.00
2019-01-19T11:32:56.588Z,4996.00
2019-01-19T11:33:56.563Z,4964.00
2019-01-19T11:34:56.669Z,4932.00
2019-01-19T11:35:56.530Z,4900.00
2019-01-19T11:36:56.448Z,4884.00
2019-01-19T11:37:56.420Z,4872.00
2019-01-19T11:38:56.373Z,4856.00
2019-01-19T11:39:56.350Z,4832.00
2019-01-19T11:40:56.345Z,4816.00
2019-01-19T11:41:56.278Z,4808.00
2019-01-19T11:42:56.323Z,4804.00
2019-01-19T11:43:56.249Z,4788.00
2019-01-19T11:44:56.173Z,4796.00
2019-01-19T11:45:56.135Z,4812.00
2019-01-19T11:46:56.099Z,4808.00
2019-01-19T11:47:56.156Z,4780.00
2019-01-19T11:48:56.033Z,4772.00
2019-01-19T11:49:55.992Z,4760.00
2019-01-19T11:50:55.960Z,4728.00
2019-01-19T11:51:55.923Z,4740.00
2019-01-19T11:52:55.937Z,4744.00
2019-01-19T11:53:55.858Z,4748.00
2019-01-19T11:54:55.870Z,4748.00
2019-01-19T11:55:55.788Z,4736.00
2019-01-19T11:56:55.763Z,4720.00
2019-01-19T11:57:55.771Z,4696.00
2019-01-19T11:58:55.761Z,4692.00
2019-01-19T11:59:55.696Z,4668.00
2019-01-19T12:00:55.645Z,4644.00
2019-01-19T12:01:55.701Z,4620.00
2019-01-19T12:02:55.552Z,4588.00
2019-01-19T12:03:55.514Z,4564.00
2019-01-19T12:04:55.695Z,4552.00
2019-01-19T12:06:04.629Z,4544.00
2019-01-19T12:06:59.042Z,4532.00
2019-01-19T12:07:55.374Z,4508.00
2019-01-19T12:08:55.374Z,4484.00
2019-01-19T12:09:55.381Z,4456.00
2019-01-19T12:10:55.308Z,4416.00
2019-01-19T12:11:55.234Z,4380.00
2019-01-19T12:12:55.196Z,4372.00
2019-01-19T12:13:55.173Z,4364.00
2019-01-19T12:14:55.130Z,4356.00
2019-01-19T12:15:55.140Z,4352.00
2019-01-19T12:16:55.145Z,4332.00
2019-01-19T12:17:55.057Z,4316.00
2019-01-19T12:18:54.995Z,4288.00
2019-01-19T12:19:54.958Z,4268.00
2019-01-19T12:20:54.966Z,4252.00
2019-01-19T12:21:54.886Z,4236.00
2019-01-19T12:22:54.910Z,4224.00
2019-01-19T12:23:54.822Z,4204.00
2019-01-19T12:24:54.822Z,4192.00
2019-01-19T12:25:54.768Z,4184.00
2019-01-19T12:26:54.713Z,4180.00
2019-01-19T12:27:54.722Z,4112.00
2019-01-19T12:28:54.657Z,4104.00
2019-01-19T12:29:54.720Z,4108.00
2019-01-19T12:30:55.148Z,4100.00
2019-01-19T12:31:54.546Z,4100.00
2019-01-19T12:32:54.518Z,4092.00
2019-01-19T12:33:54.480Z,4084.00
2019-01-19T12:34:54.485Z,4084.00
2019-01-19T12:35:54.398Z,4080.00
2019-01-19T12:36:54.367Z,4080.00
2019-01-19T12:37:54.394Z,4076.00
2019-01-19T12:38:54.306Z,4068.00
2019-01-19T12:39:54.284Z,4060.00
2019-01-19T12:40:54.237Z,4052.00
2019-01-19T12:41:54.243Z,4044.00
2019-01-19T12:42:54.166Z,4036.00
2019-01-19T12:43:54.136Z,4028.00